createdAt,value
2022-08-01T00:00:43.977Z,20.31
2022-08-01T00:01:43.950Z,20.31
2022-08-01T00:02:44.022Z,20.25
2022-08-01T00:03:43.953Z,20.25
2022-08-01T00:04:43.957Z,20.21
2022-08-01T00:05:43.927Z,20.26
2022-08-01T00:06:43.919Z,20.26
2022-08-01T00:07:43.906Z,20.24
2022-08-01T00:08:43.910Z,20.22
2022-08-01T00:09:43.921Z,20.21
2022-08-01T00:10:43.891Z,20.18
2022-08-01T00:11:43.876Z,20.24
2022-08-01T00:12:43.862Z,20.16
2022-08-01T00:13:43.862Z,20.22
2022-08-01T00:14:43.881Z,20.18
2022-08-01T00:15:51.787Z,20.28
2022-08-01T00:16:44.842Z,20.39
2022-08-01T00:17:43.832Z,20.25
2022-08-01T00:18:43.823Z,20.29
2022-08-01T00:19:43.849Z,20.21
2022-08-01T00:20:43.804Z,20.34
2022-08-01T00:21:51.989Z,20.32
2022-08-01T00:22:44.787Z,20.31
2022-08-01T00:23:43.780Z,20.32
2022-08-01T00:24:43.807Z,20.28
2022-08-01T00:25:43.768Z,20.26
2022-08-01T00:26:43.776Z,20.24
2022-08-01T00:27:43.752Z,20.25
2022-08-01T00:28:43.738Z,20.21
2022-08-01T00:30:12.645Z,20.39
2022-08-01T00:30:44.726Z,20.36
2022-08-01T00:31:43.717Z,20.28
2022-08-01T00:32:43.715Z,20.26
2022-08-01T00:33:43.704Z,20.36
2022-08-01T00:34:43.721Z,20.28
2022-08-01T00:35:43.687Z,20.22
2022-08-01T00:36:43.676Z,20.22
2022-08-01T00:37:43.662Z,20.18
2022-08-01T00:38:44.660Z,20.16
2022-08-01T00:39:43.680Z,20.22
2022-08-01T00:40:43.636Z,20.16
2022-08-01T00:41:43.644Z,20.22
2022-08-01T00:42:43.947Z,20.16
2022-08-01T00:43:44.625Z,20.21
2022-08-01T00:44:43.636Z,20.16
2022-08-01T00:45:43.605Z,20.14
2022-08-01T00:46:43.596Z,20.07
2022-08-01T00:47:43.592Z,20.13
2022-08-01T00:48:43.585Z,20.09
2022-08-01T00:49:43.602Z,20.03
2022-08-01T00:50:43.571Z,20.02
2022-08-01T00:51:43.557Z,20.00
2022-08-01T00:52:43.556Z,20.00
2022-08-01T00:53:50.969Z,20.02
2022-08-01T00:54:44.567Z,19.95
2022-08-01T00:55:43.526Z,19.91
2022-08-01T00:56:43.524Z,19.99
2022-08-01T00:58:05.471Z,20.00
2022-08-01T00:58:44.501Z,20.02
2022-08-01T00:59:43.650Z,19.86
2022-08-01T01:00:52.743Z,19.88
2022-08-01T01:01:46.895Z,19.85
2022-08-01T01:02:44.473Z,19.95
2022-08-01T01:03:58.603Z,19.89
2022-08-01T01:04:45.484Z,19.91
2022-08-01T01:05:43.448Z,19.94
2022-08-01T01:06:43.471Z,19.89
2022-08-01T01:07:49.503Z,19.91
2022-08-01T01:08:44.425Z,19.91
2022-08-01T01:09:43.441Z,19.92
2022-08-01T01:10:43.413Z,19.92
2022-08-01T01:11:43.400Z,19.86
2022-08-01T01:12:45.890Z,19.82
2022-08-01T01:13:49.640Z,19.86
2022-08-01T01:14:44.407Z,20.03
2022-08-01T01:15:43.380Z,19.88
2022-08-01T01:16:43.365Z,19.96
2022-08-01T01:17:51.130Z,19.94
2022-08-01T01:18:44.349Z,19.95
2022-08-01T01:19:43.368Z,19.89
2022-08-01T01:20:43.334Z,19.91
2022-08-01T01:21:43.329Z,19.86
2022-08-01T01:22:43.330Z,19.82
2022-08-01T01:23:43.312Z,19.89
2022-08-01T01:24:43.303Z,19.86
2022-08-01T01:25:43.313Z,19.96
2022-08-01T01:26:43.285Z,19.94
2022-08-01T01:27:43.282Z,19.89
2022-08-01T01:28:44.030Z,19.95
2022-08-01T01:29:59.840Z,19.89
2022-08-01T01:30:44.277Z,19.92
2022-08-01T01:31:43.251Z,19.96
2022-08-01T01:32:43.247Z,19.92
2022-08-01T01:33:47.255Z,19.99
2022-08-01T01:34:43.228Z,19.86
2022-08-01T01:35:43.244Z,19.95
2022-08-01T01:36:43.227Z,19.86
2022-08-01T01:37:43.223Z,19.88
2022-08-01T01:38:43.218Z,19.96
2022-08-01T01:39:45.335Z,20.02
2022-08-01T01:40:44.929Z,19.92
2022-08-01T01:41:43.171Z,19.94
2022-08-01T01:42:43.178Z,19.86
2022-08-01T01:43:43.170Z,20.00
2022-08-01T01:44:43.152Z,19.89
2022-08-01T01:45:43.169Z,19.92
2022-08-01T01:46:43.134Z,19.96
2022-08-01T01:47:43.127Z,19.89
2022-08-01T01:48:43.116Z,19.92
2022-08-01T01:49:43.113Z,19.89
2022-08-01T01:50:43.126Z,19.94
2022-08-01T01:51:43.098Z,19.99
2022-08-01T01:52:44.090Z,19.95
2022-08-01T01:53:43.092Z,19.91
2022-08-01T01:54:43.074Z,19.86
2022-08-01T01:55:48.976Z,20.02
2022-08-01T01:56:44.069Z,19.92
2022-08-01T01:57:43.058Z,19.88
2022-08-01T01:58:43.037Z,19.88
2022-08-01T01:59:43.028Z,19.96
2022-08-01T02:00:43.064Z,19.89
2022-08-01T02:02:08.637Z,19.85
2022-08-01T02:02:44.055Z,19.74
2022-08-01T02:03:43.007Z,19.84
2022-08-01T02:04:42.996Z,19.85
2022-08-01T02:05:43.016Z,19.77
2022-08-01T02:06:42.986Z,19.89
2022-08-01T02:07:42.973Z,19.77
2022-08-01T02:08:42.966Z,19.79
2022-08-01T02:09:42.955Z,19.79
2022-08-01T02:10:42.975Z,19.89
2022-08-01T02:12:08.255Z,19.85
2022-08-01T02:12:43.940Z,19.88
2022-08-01T02:13:42.931Z,19.82
2022-08-01T02:14:42.917Z,19.91
2022-08-01T02:15:59.304Z,19.91
2022-08-01T02:16:43.901Z,19.84
2022-08-01T02:17:42.899Z,19.79
2022-08-01T02:18:42.888Z,19.79
2022-08-01T02:19:42.922Z,19.86
2022-08-01T02:20:42.909Z,19.74
2022-08-01T02:21:42.866Z,19.82
2022-08-01T02:22:42.857Z,19.67
2022-08-01T02:23:42.851Z,19.76
2022-08-01T02:24:42.841Z,19.70
2022-08-01T02:26:09.274Z,19.67
2022-08-01T02:26:43.822Z,19.69
2022-08-01T02:27:42.824Z,19.73
2022-08-01T02:28:42.810Z,19.63
2022-08-01T02:29:42.805Z,19.74
2022-08-01T02:30:42.830Z,19.62
2022-08-01T02:31:42.787Z,19.69
2022-08-01T02:32:42.787Z,19.73
2022-08-01T02:33:42.776Z,19.67
2022-08-01T02:34:42.766Z,19.69
2022-08-01T02:36:30.782Z,19.69
2022-08-01T02:36:43.751Z,19.70
2022-08-01T02:37:46.931Z,19.74
2022-08-01T02:38:42.735Z,19.66
2022-08-01T02:39:42.722Z,19.56
2022-08-01T02:40:42.749Z,19.59
2022-08-01T02:41:42.709Z,19.62
2022-08-01T02:42:42.710Z,19.74
2022-08-01T02:43:42.695Z,19.70
2022-08-01T02:44:42.699Z,19.70
2022-08-01T02:45:42.715Z,19.74
2022-08-01T02:46:42.685Z,19.77
2022-08-01T02:47:42.665Z,19.71
2022-08-01T02:48:42.678Z,19.71
2022-08-01T02:49:42.659Z,19.79
2022-08-01T02:50:43.106Z,19.73
2022-08-01T02:51:42.630Z,19.79
2022-08-01T02:52:42.645Z,19.71
2022-08-01T02:53:44.705Z,19.77
2022-08-01T02:54:42.616Z,19.71
2022-08-01T02:55:42.650Z,19.81
2022-08-01T02:56:42.605Z,19.84
2022-08-01T02:57:52.042Z,19.76
2022-08-01T02:58:43.580Z,19.88
2022-08-01T02:59:42.599Z,19.91
2022-08-01T03:00:42.563Z,19.88
2022-08-01T03:01:42.666Z,19.86
2022-08-01T03:02:42.542Z,19.88
2022-08-01T03:03:42.537Z,19.92
2022-08-01T03:04:42.536Z,19.91
2022-08-01T03:05:42.525Z,19.94
2022-08-01T03:06:44.384Z,19.89
2022-08-01T03:07:42.509Z,19.94
2022-08-01T03:08:42.495Z,19.91
2022-08-01T03:09:42.495Z,19.94
2022-08-01T03:10:42.479Z,19.89
2022-08-01T03:11:42.501Z,19.88
2022-08-01T03:12:42.468Z,19.91
2022-08-01T03:13:42.458Z,19.91
2022-08-01T03:14:42.451Z,19.94
2022-08-01T03:15:42.441Z,19.94
2022-08-01T03:16:42.461Z,19.92
2022-08-01T03:17:42.422Z,19.95
2022-08-01T03:18:42.413Z,19.88
2022-08-01T03:19:43.416Z,19.94
2022-08-01T03:20:42.407Z,19.91
2022-08-01T03:21:42.447Z,19.89
2022-08-01T03:22:42.388Z,19.92
2022-08-01T03:23:42.381Z,19.88
2022-08-01T03:24:42.370Z,19.92
2022-08-01T03:25:42.370Z,19.86
2022-08-01T03:26:42.382Z,19.88
2022-08-01T03:27:42.345Z,19.89
2022-08-01T03:28:42.341Z,19.86
2022-08-01T03:29:42.331Z,19.84
2022-08-01T03:30:42.325Z,19.82
2022-08-01T03:31:42.379Z,19.82
2022-08-01T03:32:42.310Z,19.84
2022-08-01T03:33:42.309Z,19.85
2022-08-01T03:34:42.298Z,19.86
2022-08-01T03:35:42.284Z,19.88
2022-08-01T03:36:42.335Z,19.74
2022-08-01T03:37:59.998Z,19.88
2022-08-01T03:38:44.264Z,19.81
2022-08-01T03:39:42.251Z,19.69
2022-08-01T03:40:42.244Z,19.74
2022-08-01T03:41:42.259Z,19.84
2022-08-01T03:42:42.229Z,19.88
2022-08-01T03:43:42.227Z,19.76
2022-08-01T03:44:42.209Z,19.85
2022-08-01T03:45:42.211Z,19.81
2022-08-01T03:46:42.219Z,19.84
2022-08-01T03:47:44.677Z,19.76
2022-08-01T03:48:42.179Z,19.79
2022-08-01T03:49:42.174Z,19.77
2022-08-01T03:50:42.163Z,19.84
2022-08-01T03:51:42.182Z,19.82
2022-08-01T03:52:42.154Z,19.69
2022-08-01T03:53:42.626Z,19.76
2022-08-01T03:54:42.128Z,19.77
2022-08-01T03:55:42.121Z,19.85
2022-08-01T03:56:42.143Z,19.74
2022-08-01T03:57:42.107Z,19.81
2022-08-01T03:58:42.096Z,19.74
2022-08-01T03:59:42.090Z,19.86
2022-08-01T04:00:42.083Z,19.77
2022-08-01T04:01:42.162Z,19.77
2022-08-01T04:02:42.068Z,19.84
2022-08-01T04:03:43.109Z,19.92
2022-08-01T04:04:42.055Z,19.89
2022-08-01T04:05:42.051Z,19.91
2022-08-01T04:06:42.042Z,19.88
2022-08-01T04:07:42.052Z,19.96
2022-08-01T04:08:42.023Z,19.95
2022-08-01T04:09:42.011Z,19.89
2022-08-01T04:10:42.005Z,19.91
2022-08-01T04:11:42.020Z,19.92
2022-08-01T04:12:42.013Z,19.96
2022-08-01T04:13:44.497Z,19.86
2022-08-01T04:14:41.972Z,20.09
2022-08-01T04:15:41.962Z,20.03
2022-08-01T04:16:41.956Z,20.02
2022-08-01T04:17:41.973Z,20.03
2022-08-01T04:18:41.944Z,20.07
2022-08-01T04:19:41.931Z,20.04
2022-08-01T04:20:41.922Z,20.02
2022-08-01T04:21:41.913Z,20.04
2022-08-01T04:22:41.933Z,20.03
2022-08-01T04:23:41.901Z,20.03
2022-08-01T04:24:41.890Z,19.99
2022-08-01T04:25:41.885Z,19.89
2022-08-01T04:26:41.882Z,20.04
2022-08-01T04:27:51.192Z,20.04
2022-08-01T04:28:42.875Z,20.02
2022-08-01T04:29:41.873Z,19.99
2022-08-01T04:30:41.853Z,20.03
2022-08-01T04:31:41.839Z,19.96
2022-08-01T04:32:41.861Z,19.86
2022-08-01T04:33:41.826Z,19.99
2022-08-01T04:34:41.814Z,20.03
2022-08-01T04:36:03.653Z,19.99
2022-08-01T04:36:42.807Z,19.94
2022-08-01T04:37:41.816Z,20.03
2022-08-01T04:38:41.786Z,20.02
2022-08-01T04:39:50.385Z,19.94
2022-08-01T04:40:42.772Z,20.00
2022-08-01T04:41:41.761Z,20.07
2022-08-01T04:42:41.776Z,19.96
2022-08-01T04:43:44.195Z,20.10
2022-08-01T04:44:41.735Z,20.03
2022-08-01T04:45:41.731Z,20.10
2022-08-01T04:46:41.727Z,20.03
2022-08-01T04:47:41.736Z,19.96
2022-08-01T04:48:41.706Z,20.10
2022-08-01T04:49:49.110Z,20.03
2022-08-01T04:50:42.690Z,20.02
2022-08-01T04:51:41.685Z,20.13
2022-08-01T04:52:41.703Z,20.06
2022-08-01T04:53:41.661Z,20.13
2022-08-01T04:54:41.660Z,20.13
2022-08-01T04:55:41.646Z,20.21
2022-08-01T04:56:41.638Z,20.24
2022-08-01T04:57:41.655Z,20.26
2022-08-01T04:58:41.627Z,20.22
2022-08-01T04:59:41.616Z,20.24
2022-08-01T05:00:41.618Z,20.22
2022-08-01T05:01:41.688Z,20.34
2022-08-01T05:02:41.618Z,20.32
2022-08-01T05:03:42.626Z,20.25
2022-08-01T05:04:41.588Z,20.28
2022-08-01T05:05:41.570Z,20.22
2022-08-01T05:06:41.564Z,20.22
2022-08-01T05:07:44.352Z,20.26
2022-08-01T05:08:41.609Z,20.39
2022-08-01T05:09:41.537Z,20.39
2022-08-01T05:10:41.535Z,20.31
2022-08-01T05:11:41.527Z,20.25
2022-08-01T05:12:41.515Z,20.36
2022-08-01T05:13:41.535Z,20.32
2022-08-01T05:14:41.497Z,20.26
2022-08-01T05:15:41.491Z,20.31
2022-08-01T05:16:41.484Z,20.31
2022-08-01T05:17:41.473Z,20.29
2022-08-01T05:18:41.491Z,20.41
2022-08-01T05:19:41.456Z,20.47
2022-08-01T05:20:41.452Z,20.41
2022-08-01T05:21:41.444Z,20.47
2022-08-01T05:22:41.439Z,20.48
2022-08-01T05:23:42.989Z,20.60
2022-08-01T05:24:41.424Z,20.58
2022-08-01T05:25:57.880Z,20.62
2022-08-01T05:26:42.409Z,20.58
2022-08-01T05:27:41.404Z,20.70
2022-08-01T05:28:41.419Z,20.67
2022-08-01T05:29:44.620Z,20.65
2022-08-01T05:30:42.375Z,20.75
2022-08-01T05:31:41.371Z,20.75
2022-08-01T05:32:41.359Z,20.72
2022-08-01T05:33:41.379Z,20.75
2022-08-01T05:34:41.344Z,20.75
2022-08-01T05:35:47.875Z,20.65
2022-08-01T05:36:42.330Z,20.77
2022-08-01T05:37:41.325Z,20.72
2022-08-01T05:38:41.336Z,20.65
2022-08-01T05:39:41.303Z,20.59
2022-08-01T05:40:41.298Z,20.52
2022-08-01T05:41:41.291Z,20.52
2022-08-01T05:42:41.289Z,20.58
2022-08-01T05:43:41.296Z,20.66
2022-08-01T05:44:41.269Z,20.56
2022-08-01T05:45:41.266Z,20.66
2022-08-01T05:46:41.247Z,20.67
2022-08-01T05:47:43.150Z,20.65
2022-08-01T05:48:41.259Z,20.56
2022-08-01T05:49:41.235Z,20.58
2022-08-01T05:50:41.231Z,20.59
2022-08-01T05:51:41.213Z,20.52
2022-08-01T05:52:41.205Z,20.50
2022-08-01T05:53:41.219Z,20.56
2022-08-01T05:54:41.185Z,20.41
2022-08-01T05:55:41.185Z,20.56
2022-08-01T05:56:41.181Z,20.52
2022-08-01T05:57:41.177Z,20.52
2022-08-01T05:58:41.182Z,20.59
2022-08-01T05:59:41.150Z,20.62
2022-08-01T06:00:41.146Z,20.65
2022-08-01T06:01:41.181Z,20.69
2022-08-01T06:02:41.192Z,20.77
2022-08-01T06:03:41.140Z,20.77
2022-08-01T06:04:41.111Z,20.85
2022-08-01T06:05:41.113Z,20.84
2022-08-01T06:06:41.100Z,20.99
2022-08-01T06:07:41.100Z,21.00
2022-08-01T06:08:41.106Z,21.06
2022-08-01T06:09:41.076Z,20.95
2022-08-01T06:10:41.056Z,21.05
2022-08-01T06:11:42.063Z,21.07
2022-08-01T06:12:41.052Z,21.17
2022-08-01T06:13:48.533Z,21.25
2022-08-01T06:14:42.032Z,21.36
2022-08-01T06:15:41.029Z,21.45
2022-08-01T06:16:41.018Z,21.45
2022-08-01T06:17:41.011Z,21.64
2022-08-01T06:18:41.027Z,21.69
2022-08-01T06:19:40.994Z,21.80
2022-08-01T06:20:41.017Z,21.73
2022-08-01T06:21:40.984Z,21.83
2022-08-01T06:22:40.971Z,21.88
2022-08-01T06:23:40.966Z,21.95
2022-08-01T06:24:40.984Z,21.95
2022-08-01T06:25:40.950Z,21.93
2022-08-01T06:26:40.946Z,22.10
2022-08-01T06:27:40.929Z,22.13
2022-08-01T06:28:40.926Z,22.35
2022-08-01T06:29:40.940Z,22.50
2022-08-01T06:30:41.911Z,22.57
2022-08-01T06:31:40.902Z,22.75
2022-08-01T06:32:40.890Z,22.78
2022-08-01T06:33:40.883Z,22.84
2022-08-01T06:34:40.921Z,22.96
2022-08-01T06:35:40.871Z,22.94
2022-08-01T06:36:40.861Z,22.78
2022-08-01T06:37:40.844Z,22.50
2022-08-01T06:38:41.846Z,22.50
2022-08-01T06:39:40.861Z,22.47
2022-08-01T06:40:40.827Z,22.41
2022-08-01T06:41:40.822Z,22.36
2022-08-01T06:42:40.813Z,22.36
2022-08-01T06:43:40.803Z,22.38
2022-08-01T06:44:40.826Z,22.45
2022-08-01T06:45:40.788Z,22.65
2022-08-01T06:46:40.778Z,22.69
2022-08-01T06:47:40.774Z,22.81
2022-08-01T06:48:40.773Z,22.81
2022-08-01T06:49:40.801Z,22.76
2022-08-01T06:50:40.750Z,22.87
2022-08-01T06:51:40.747Z,22.75
2022-08-01T06:52:40.738Z,22.63
2022-08-01T06:53:40.721Z,22.53
2022-08-01T06:54:40.742Z,22.50
2022-08-01T06:55:40.712Z,22.39
2022-08-01T06:56:40.701Z,22.35
2022-08-01T06:57:40.685Z,22.26
2022-08-01T06:58:41.689Z,22.25
2022-08-01T06:59:40.799Z,22.17
2022-08-01T07:00:41.690Z,22.25
2022-08-01T07:01:40.775Z,22.33
2022-08-01T07:02:40.657Z,22.41
2022-08-01T07:03:53.903Z,22.43
2022-08-01T07:04:41.669Z,22.39
2022-08-01T07:05:40.636Z,22.43
2022-08-01T07:06:40.624Z,22.39
2022-08-01T07:07:40.617Z,22.28
2022-08-01T07:08:40.615Z,22.20
2022-08-01T07:09:40.633Z,22.32
2022-08-01T07:10:40.593Z,22.18
2022-08-01T07:11:40.586Z,21.89
2022-08-01T07:12:40.572Z,21.95
2022-08-01T07:13:45.495Z,21.93
2022-08-01T07:14:40.586Z,21.88
2022-08-01T07:15:40.559Z,21.95
2022-08-01T07:16:40.562Z,21.99
2022-08-01T07:17:40.542Z,22.13
2022-08-01T07:18:40.538Z,22.18
2022-08-01T07:19:40.550Z,22.22
2022-08-01T07:20:51.825Z,22.18
2022-08-01T07:21:41.888Z,22.17
2022-08-01T07:22:41.501Z,22.36
2022-08-01T07:23:45.843Z,22.36
2022-08-01T07:24:41.543Z,22.43
2022-08-01T07:25:40.504Z,22.50
2022-08-01T07:26:52.986Z,22.47
2022-08-01T07:27:41.468Z,22.53
2022-08-01T07:28:43.948Z,22.62
2022-08-01T07:29:40.474Z,22.47
2022-08-01T07:30:40.445Z,22.55
2022-08-01T07:31:40.455Z,22.54
2022-08-01T07:32:40.425Z,22.59
2022-08-01T07:33:48.099Z,22.70
2022-08-01T07:34:41.438Z,22.83
2022-08-01T07:35:40.414Z,22.84
2022-08-01T07:36:40.417Z,22.85
2022-08-01T07:37:45.268Z,22.84
2022-08-01T07:38:41.381Z,22.80
2022-08-01T07:39:40.406Z,22.76
2022-08-01T07:40:40.368Z,23.05
2022-08-01T07:42:05.808Z,23.15
2022-08-01T07:42:41.349Z,23.20
2022-08-01T07:43:40.352Z,23.28
2022-08-01T07:44:40.359Z,23.39
2022-08-01T07:45:43.846Z,23.44
2022-08-01T07:46:41.321Z,23.63
2022-08-01T07:47:40.312Z,23.88
2022-08-01T07:48:40.320Z,24.17
2022-08-01T07:49:41.112Z,24.24
2022-08-01T07:50:41.293Z,24.10
2022-08-01T07:51:40.282Z,24.23
2022-08-01T07:52:40.274Z,24.39
2022-08-01T07:53:40.265Z,24.61
2022-08-01T07:54:40.292Z,25.01
2022-08-01T07:55:40.258Z,25.91
2022-08-01T07:56:40.250Z,27.27
2022-08-01T07:57:40.233Z,28.20
2022-08-01T07:58:40.223Z,28.48
2022-08-01T07:59:40.255Z,27.63
2022-08-01T08:00:40.211Z,27.54
2022-08-01T08:01:40.230Z,26.63
2022-08-01T08:02:40.192Z,25.93
2022-08-01T08:03:40.197Z,25.84
2022-08-01T08:04:40.202Z,26.75
2022-08-01T08:05:58.816Z,28.01
2022-08-01T08:06:41.163Z,28.26
2022-08-01T08:07:40.164Z,27.92
2022-08-01T08:08:40.178Z,27.40
2022-08-01T08:09:40.174Z,27.12
2022-08-01T08:10:40.140Z,27.14
2022-08-01T08:11:43.448Z,26.63
2022-08-01T08:12:41.145Z,26.25
2022-08-01T08:13:40.117Z,26.15
2022-08-01T08:14:40.134Z,26.18
2022-08-01T08:15:40.111Z,25.98
2022-08-01T08:16:40.089Z,25.93
2022-08-01T08:17:40.084Z,25.72
2022-08-01T08:18:40.076Z,25.10
2022-08-01T08:19:40.105Z,25.41
2022-08-01T08:20:40.065Z,25.21
2022-08-01T08:21:40.081Z,25.93
2022-08-01T08:22:40.050Z,26.52
2022-08-01T08:23:41.966Z,27.03
2022-08-01T08:24:45.607Z,27.36
2022-08-01T08:25:41.022Z,28.07
2022-08-01T08:26:40.017Z,28.93
2022-08-01T08:27:40.004Z,29.24
2022-08-01T08:28:40.252Z,29.16
2022-08-01T08:29:40.020Z,28.45
2022-08-01T08:30:39.986Z,28.05
2022-08-01T08:31:52.369Z,27.93
2022-08-01T08:32:40.982Z,27.96
2022-08-01T08:33:39.965Z,28.51
2022-08-01T08:34:39.986Z,28.52
2022-08-01T08:35:40.487Z,28.70
2022-08-01T08:36:40.965Z,29.10
2022-08-01T08:37:47.595Z,28.75
2022-08-01T08:38:40.933Z,28.48
2022-08-01T08:39:41.794Z,27.64
2022-08-01T08:40:40.008Z,27.42
2022-08-01T08:41:40.912Z,27.42
2022-08-01T08:42:39.901Z,27.45
2022-08-01T08:43:39.891Z,26.81
2022-08-01T08:44:39.911Z,26.07
2022-08-01T08:45:58.826Z,25.46
2022-08-01T08:46:40.889Z,25.08
2022-08-01T08:47:39.863Z,24.99
2022-08-01T08:48:39.859Z,25.28
2022-08-01T08:49:39.918Z,25.90
2022-08-01T08:50:39.844Z,26.31
2022-08-01T08:51:39.833Z,26.83
2022-08-01T08:52:39.829Z,27.22
2022-08-01T08:53:39.823Z,27.75
2022-08-01T08:54:39.837Z,28.32
2022-08-01T08:55:56.253Z,28.72
2022-08-01T08:56:40.791Z,29.71
2022-08-01T08:57:39.792Z,30.44
2022-08-01T08:58:39.781Z,30.19
2022-08-01T08:59:39.805Z,29.20
2022-08-01T09:00:39.772Z,29.26
2022-08-01T09:01:39.760Z,29.24
2022-08-01T09:02:39.752Z,27.80
2022-08-01T09:03:39.792Z,27.33
2022-08-01T09:04:39.770Z,27.37
2022-08-01T09:05:39.738Z,27.59
2022-08-01T09:06:39.722Z,27.30
2022-08-01T09:07:39.726Z,27.55
2022-08-01T09:08:39.750Z,28.10
2022-08-01T09:09:41.931Z,28.33
2022-08-01T09:10:39.692Z,28.70
2022-08-01T09:11:39.691Z,28.49
2022-08-01T09:12:39.730Z,28.15
2022-08-01T09:13:45.297Z,27.71
2022-08-01T09:14:40.674Z,28.30
2022-08-01T09:15:39.685Z,27.65
2022-08-01T09:16:39.647Z,27.11
2022-08-01T09:17:39.639Z,27.11
2022-08-01T09:18:39.630Z,27.21
2022-08-01T09:19:41.590Z,27.15
2022-08-01T09:20:39.665Z,27.32
2022-08-01T09:21:39.614Z,27.12
2022-08-01T09:22:39.614Z,26.52
2022-08-01T09:23:40.595Z,26.33
2022-08-01T09:24:40.595Z,26.56
2022-08-01T09:25:46.121Z,26.85
2022-08-01T09:26:40.572Z,27.05
2022-08-01T09:27:44.291Z,27.17
2022-08-01T09:28:42.975Z,27.54
2022-08-01T09:29:41.559Z,27.68
2022-08-01T09:30:39.619Z,27.71
2022-08-01T09:31:39.544Z,27.39
2022-08-01T09:32:39.534Z,26.96
2022-08-01T09:33:39.539Z,26.83
2022-08-01T09:34:39.519Z,26.75
2022-08-01T09:35:43.889Z,26.53
2022-08-01T09:36:39.504Z,26.62
2022-08-01T09:37:39.556Z,26.41
2022-08-01T09:38:42.252Z,26.28
2022-08-01T09:39:40.504Z,26.62
2022-08-01T09:40:39.498Z,26.90
2022-08-01T09:41:40.307Z,27.22
2022-08-01T09:42:39.466Z,27.58
2022-08-01T09:43:39.460Z,27.74
2022-08-01T09:44:40.019Z,27.59
2022-08-01T09:45:41.263Z,27.82
2022-08-01T09:46:40.434Z,27.80
2022-08-01T09:47:39.484Z,27.05
2022-08-01T09:48:39.437Z,26.81
2022-08-01T09:49:51.098Z,26.93
2022-08-01T09:50:40.432Z,26.83
2022-08-01T09:51:58.780Z,26.51
2022-08-01T09:52:41.127Z,26.68
2022-08-01T09:53:39.382Z,26.92
2022-08-01T09:54:40.375Z,27.03
2022-08-01T09:55:39.395Z,27.02
2022-08-01T09:56:39.360Z,26.96
2022-08-01T09:57:39.377Z,26.93
2022-08-01T09:58:39.350Z,27.08
2022-08-01T09:59:57.193Z,26.97
2022-08-01T10:00:45.766Z,26.77
2022-08-01T10:01:40.548Z,26.53
2022-08-01T10:02:39.317Z,26.68
2022-08-01T10:03:39.409Z,26.97
2022-08-01T10:04:39.299Z,27.26
2022-08-01T10:05:39.288Z,27.75
2022-08-01T10:06:39.313Z,27.95
2022-08-01T10:07:43.694Z,27.75
2022-08-01T10:08:40.266Z,27.60
2022-08-01T10:09:40.790Z,27.82
2022-08-01T10:10:39.260Z,27.29
2022-08-01T10:11:39.276Z,27.07
2022-08-01T10:12:39.236Z,26.97
2022-08-01T10:13:40.225Z,26.62
2022-08-01T10:14:39.218Z,26.43
2022-08-01T10:15:39.211Z,26.41
2022-08-01T10:16:39.321Z,26.29
2022-08-01T10:17:50.424Z,26.15
2022-08-01T10:18:40.190Z,26.10
2022-08-01T10:19:39.192Z,26.26
2022-08-01T10:20:39.173Z,26.60
2022-08-01T10:21:47.687Z,26.84
2022-08-01T10:22:40.151Z,26.84
2022-08-01T10:23:39.983Z,26.80
2022-08-01T10:24:39.145Z,27.07
2022-08-01T10:25:42.851Z,27.17
2022-08-01T10:26:39.157Z,26.81
2022-08-01T10:27:39.699Z,26.75
2022-08-01T10:28:39.463Z,27.02
2022-08-01T10:29:45.678Z,27.12
2022-08-01T10:30:40.091Z,27.05
2022-08-01T10:31:39.117Z,26.90
2022-08-01T10:32:39.664Z,26.66
2022-08-01T10:33:51.114Z,26.70
2022-08-01T10:34:40.565Z,26.90
2022-08-01T10:35:47.187Z,26.88
2022-08-01T10:36:41.014Z,27.08
2022-08-01T10:37:52.514Z,27.30
2022-08-01T10:38:40.031Z,27.12
2022-08-01T10:39:39.026Z,27.26
2022-08-01T10:40:39.016Z,27.35
2022-08-01T10:41:41.540Z,27.77
2022-08-01T10:42:39.006Z,27.75
2022-08-01T10:43:39.007Z,27.59
2022-08-01T10:44:38.987Z,27.74
2022-08-01T10:45:38.988Z,27.74
2022-08-01T10:46:38.997Z,28.02
2022-08-01T10:47:52.144Z,28.22
2022-08-01T10:48:39.956Z,28.23
2022-08-01T10:49:39.011Z,28.23
2022-08-01T10:50:38.946Z,28.23
2022-08-01T10:51:51.981Z,28.11
2022-08-01T10:52:39.917Z,28.27
2022-08-01T10:53:42.636Z,28.52
2022-08-01T10:54:38.917Z,28.79
2022-08-01T10:55:39.905Z,29.12
2022-08-01T10:56:38.932Z,29.17
2022-08-01T10:57:38.897Z,29.29
2022-08-01T10:58:42.697Z,29.19
2022-08-01T10:59:50.312Z,29.22
2022-08-01T11:00:39.878Z,29.23
2022-08-01T11:01:39.001Z,29.34
2022-08-01T11:02:39.872Z,29.54
2022-08-01T11:03:56.765Z,29.66
2022-08-01T11:04:40.851Z,29.76
2022-08-01T11:05:38.840Z,29.29
2022-08-01T11:06:38.850Z,28.93
2022-08-01T11:07:38.821Z,28.78
2022-08-01T11:08:38.812Z,28.70
2022-08-01T11:09:38.833Z,28.81
2022-08-01T11:10:39.030Z,28.69
2022-08-01T11:11:38.819Z,28.41
2022-08-01T11:12:38.780Z,28.30
2022-08-01T11:13:38.774Z,28.04
2022-08-01T11:14:55.138Z,27.58
2022-08-01T11:15:50.094Z,27.45
2022-08-01T11:16:39.779Z,27.42
2022-08-01T11:17:42.116Z,27.77
2022-08-01T11:18:38.735Z,28.22
2022-08-01T11:19:38.742Z,28.72
2022-08-01T11:20:41.968Z,29.20
2022-08-01T11:21:59.092Z,29.49
2022-08-01T11:22:39.699Z,29.57
2022-08-01T11:23:38.697Z,29.54
2022-08-01T11:24:38.691Z,29.14
2022-08-01T11:26:05.146Z,28.94
2022-08-01T11:26:39.701Z,29.22
2022-08-01T11:27:38.677Z,29.45
2022-08-01T11:28:40.624Z,29.79
2022-08-01T11:29:39.652Z,30.06
2022-08-01T11:30:38.654Z,30.13
2022-08-01T11:31:38.634Z,29.75
2022-08-01T11:32:58.651Z,29.36
2022-08-01T11:33:40.617Z,29.44
2022-08-01T11:34:38.610Z,29.63
2022-08-01T11:35:38.605Z,29.82
2022-08-01T11:37:03.404Z,29.95
2022-08-01T11:37:40.615Z,29.94
2022-08-01T11:38:38.578Z,29.95
2022-08-01T11:39:39.043Z,29.91
2022-08-01T11:40:39.565Z,29.88
2022-08-01T11:41:39.507Z,29.87
2022-08-01T11:42:39.588Z,29.76
2022-08-01T11:43:38.562Z,29.16
2022-08-01T11:44:38.547Z,28.89
2022-08-01T11:45:38.527Z,29.04
2022-08-01T11:46:38.529Z,29.16
2022-08-01T11:47:38.538Z,29.22
2022-08-01T11:48:38.506Z,29.02
2022-08-01T11:49:39.231Z,28.70
2022-08-01T11:50:38.992Z,28.51
2022-08-01T11:51:38.485Z,28.63
2022-08-01T11:52:38.497Z,28.64
2022-08-01T11:53:38.468Z,28.47
2022-08-01T11:54:38.465Z,28.29
2022-08-01T11:55:38.469Z,28.42
2022-08-01T11:56:42.888Z,28.62
2022-08-01T11:57:40.468Z,29.12
2022-08-01T11:58:38.433Z,29.14
2022-08-01T11:59:41.137Z,29.12
2022-08-01T12:00:38.416Z,29.45
2022-08-01T12:01:39.406Z,29.56
2022-08-01T12:02:38.458Z,29.66
2022-08-01T12:03:38.396Z,29.57
2022-08-01T12:04:38.388Z,29.39
2022-08-01T12:05:43.236Z,29.05
2022-08-01T12:06:39.373Z,28.94
2022-08-01T12:07:38.397Z,28.96
2022-08-01T12:08:38.356Z,28.67
2022-08-01T12:09:38.348Z,28.84
2022-08-01T12:10:49.526Z,28.49
2022-08-01T12:11:39.333Z,28.54
2022-08-01T12:12:38.362Z,28.48
2022-08-01T12:13:38.319Z,28.62
2022-08-01T12:14:38.316Z,28.82
2022-08-01T12:15:38.309Z,29.07
2022-08-01T12:16:38.299Z,29.24
2022-08-01T12:17:38.313Z,28.84
2022-08-01T12:18:38.309Z,28.76
2022-08-01T12:19:38.281Z,28.67
2022-08-01T12:20:40.130Z,28.76
2022-08-01T12:21:38.251Z,29.14
2022-08-01T12:22:39.258Z,29.17
2022-08-01T12:23:38.274Z,29.20
2022-08-01T12:24:38.239Z,29.01
2022-08-01T12:25:38.252Z,28.52
2022-08-01T12:26:38.224Z,28.78
2022-08-01T12:27:38.212Z,28.91
2022-08-01T12:28:38.232Z,29.34
2022-08-01T12:29:38.205Z,29.60
2022-08-01T12:30:38.239Z,29.54
2022-08-01T12:31:38.185Z,29.73
2022-08-01T12:32:38.194Z,29.59
2022-08-01T12:33:38.192Z,29.39
2022-08-01T12:34:38.159Z,29.45
2022-08-01T12:35:38.154Z,29.57
2022-08-01T12:36:38.147Z,29.78
2022-08-01T12:37:38.137Z,29.78
2022-08-01T12:38:38.158Z,29.82
2022-08-01T12:39:38.407Z,29.50
2022-08-01T12:40:40.933Z,29.53
2022-08-01T12:41:39.110Z,29.50
2022-08-01T12:42:38.096Z,29.59
2022-08-01T12:43:38.140Z,29.68
2022-08-01T12:44:38.085Z,29.66
2022-08-01T12:45:38.077Z,29.82
2022-08-01T12:46:41.494Z,29.66
2022-08-01T12:47:40.066Z,29.59
2022-08-01T12:48:38.080Z,29.54
2022-08-01T12:49:38.115Z,29.57
2022-08-01T12:50:38.049Z,29.53
2022-08-01T12:51:38.040Z,29.36
2022-08-01T12:52:38.034Z,29.31